sensor_id;sensor_type;location;lat;lon;timestamp;P1;durP1;ratioP1;P2;durP2;ratioP2
25409;SDS011;13339;50.840;4.346;2023-10-19T00:00:34;3.73;;;1.50;;
25409;SDS011;13339;50.840;4.346;2023-10-19T00:03:04;2.03;;;0.83;;
25409;SDS011;13339;50.840;4.346;2023-10-19T00:05:31;7.00;;;0.93;;
25409;SDS011;13339;50.840;4.346;2023-10-19T00:08:01;6.90;;;1.20;;
25409;SDS011;13339;50.840;4.346;2023-10-19T00:10:46;4.17;;;1.10;;
25409;SDS011;13339;50.840;4.346;2023-10-19T00:13:15;4.57;;;1.17;;
25409;SDS011;13339;50.840;4.346;2023-10-19T00:15:41;3.07;;;0.97;;
25409;SDS011;13339;50.840;4.346;2023-10-19T00:18:19;6.17;;;1.07;;
25409;SDS011;13339;50.840;4.346;2023-10-19T00:20:47;7.27;;;1.10;;
25409;SDS011;13339;50.840;4.346;2023-10-19T00:23:25;3.87;;;1.00;;
25409;SDS011;13339;50.840;4.346;2023-10-19T00:25:58;2.87;;;1.00;;
25409;SDS011;13339;50.840;4.346;2023-10-19T00:28:26;2.77;;;1.73;;
25409;SDS011;13339;50.840;4.346;2023-10-19T00:30:52;6.87;;;1.60;;
25409;SDS011;13339;50.840;4.346;2023-10-19T00:33:21;4.13;;;2.03;;
25409;SDS011;13339;50.840;4.346;2023-10-19T00:35:48;6.70;;;2.43;;
25409;SDS011;13339;50.840;4.346;2023-10-19T00:38:24;7.37;;;2.93;;
25409;SDS011;13339;50.840;4.346;2023-10-19T00:40:50;8.37;;;3.40;;
25409;SDS011;13339;50.840;4.346;2023-10-19T00:43:28;11.67;;;4.20;;
25409;SDS011;13339;50.840;4.346;2023-10-19T00:46:00;9.00;;;3.80;;
25409;SDS011;13339;50.840;4.346;2023-10-19T00:48:35;7.37;;;3.80;;
25409;SDS011;13339;50.840;4.346;2023-10-19T00:51:02;8.43;;;4.10;;
25409;SDS011;13339;50.840;4.346;2023-10-19T00:53:48;9.80;;;3.20;;
25409;SDS011;13339;50.840;4.346;2023-10-19T00:56:14;5.93;;;3.23;;
25409;SDS011;13339;50.840;4.346;2023-10-19T00:58:44;5.63;;;3.07;;
25409;SDS011;13339;50.840;4.346;2023-10-19T01:01:18;6.17;;;2.57;;
25409;SDS011;13339;50.840;4.346;2023-10-19T01:03:49;7.80;;;2.80;;
25409;SDS011;13339;50.840;4.346;2023-10-19T01:06:21;5.67;;;2.60;;
25409;SDS011;13339;50.840;4.346;2023-10-19T01:08:47;7.57;;;3.17;;
25409;SDS011;13339;50.840;4.346;2023-10-19T01:11:16;8.07;;;3.63;;
25409;SDS011;13339;50.840;4.346;2023-10-19T01:13:45;10.13;;;3.50;;
25409;SDS011;13339;50.840;4.346;2023-10-19T01:16:15;9.43;;;3.93;;
25409;SDS011;13339;50.840;4.346;2023-10-19T01:18:48;9.10;;;3.60;;
25409;SDS011;13339;50.840;4.346;2023-10-19T01:21:18;8.30;;;3.63;;
25409;SDS011;13339;50.840;4.346;2023-10-19T01:23:50;7.07;;;3.27;;
25409;SDS011;13339;50.840;4.346;2023-10-19T01:26:16;8.30;;;3.40;;
25409;SDS011;13339;50.840;4.346;2023-10-19T01:28:51;7.83;;;3.33;;
25409;SDS011;13339;50.840;4.346;2023-10-19T01:31:25;10.57;;;2.53;;
25409;SDS011;13339;50.840;4.346;2023-10-19T01:33:54;7.97;;;3.20;;
25409;SDS011;13339;50.840;4.346;2023-10-19T01:36:22;8.03;;;2.57;;
25409;SDS011;13339;50.840;4.346;2023-10-19T01:38:52;8.23;;;2.20;;
25409;SDS011;13339;50.840;4.346;2023-10-19T01:41:19;6.53;;;2.40;;
25409;SDS011;13339;50.840;4.346;2023-10-19T01:43:47;7.03;;;2.10;;
25409;SDS011;13339;50.840;4.346;2023-10-19T01:46:14;7.63;;;2.03;;
25409;SDS011;13339;50.840;4.346;2023-10-19T01:48:47;3.43;;;1.60;;
25409;SDS011;13339;50.840;4.346;2023-10-19T01:51:14;6.30;;;1.80;;
25409;SDS011;13339;50.840;4.346;2023-10-19T01:53:40;6.07;;;1.97;;
25409;SDS011;13339;50.840;4.346;2023-10-19T01:56:10;7.13;;;1.77;;
25409;SDS011;13339;50.840;4.346;2023-10-19T01:58:37;7.97;;;1.80;;
25409;SDS011;13339;50.840;4.346;2023-10-19T02:01:04;5.80;;;1.90;;
25409;SDS011;13339;50.840;4.346;2023-10-19T02:03:43;6.37;;;1.67;;
25409;SDS011;13339;50.840;4.346;2023-10-19T02:06:12;10.23;;;2.20;;
25409;SDS011;13339;50.840;4.346;2023-10-19T02:08:51;11.33;;;2.00;;
25409;SDS011;13339;50.840;4.346;2023-10-19T02:11:24;5.57;;;1.70;;
25409;SDS011;13339;50.840;4.346;2023-10-19T02:13:54;8.13;;;2.00;;
25409;SDS011;13339;50.840;4.346;2023-10-19T02:16:25;4.87;;;1.27;;
25409;SDS011;13339;50.840;4.346;2023-10-19T02:18:52;6.70;;;2.40;;
25409;SDS011;13339;50.840;4.346;2023-10-19T02:21:18;4.47;;;1.50;;
25409;SDS011;13339;50.840;4.346;2023-10-19T02:23:47;4.30;;;1.43;;
25409;SDS011;13339;50.840;4.346;2023-10-19T02:26:15;10.50;;;2.13;;
25409;SDS011;13339;50.840;4.346;2023-10-19T02:28:55;4.47;;;1.40;;
25409;SDS011;13339;50.840;4.346;2023-10-19T02:31:23;12.57;;;2.43;;
25409;SDS011;13339;50.840;4.346;2023-10-19T02:33:53;8.30;;;2.03;;
25409;SDS011;13339;50.840;4.346;2023-10-19T02:36:26;8.33;;;2.50;;
25409;SDS011;13339;50.840;4.346;2023-10-19T02:38:54;7.57;;;1.70;;
25409;SDS011;13339;50.840;4.346;2023-10-19T02:41:23;4.73;;;1.63;;
25409;SDS011;13339;50.840;4.346;2023-10-19T02:43:51;6.97;;;2.07;;
25409;SDS011;13339;50.840;4.346;2023-10-19T02:46:27;11.03;;;1.97;;
25409;SDS011;13339;50.840;4.346;2023-10-19T02:48:53;12.60;;;2.30;;
25409;SDS011;13339;50.840;4.346;2023-10-19T02:51:19;11.70;;;2.70;;
25409;SDS011;13339;50.840;4.346;2023-10-19T02:53:45;8.00;;;2.23;;
25409;SDS011;13339;50.840;4.346;2023-10-19T02:56:13;7.63;;;1.60;;
25409;SDS011;13339;50.840;4.346;2023-10-19T02:58:44;9.10;;;2.00;;
25409;SDS011;13339;50.840;4.346;2023-10-19T03:01:18;5.53;;;1.87;;
25409;SDS011;13339;50.840;4.346;2023-10-19T03:03:54;12.53;;;1.97;;
25409;SDS011;13339;50.840;4.346;2023-10-19T03:06:24;9.53;;;2.00;;
25409;SDS011;13339;50.840;4.346;2023-10-19T03:08:51;9.67;;;2.27;;
25409;SDS011;13339;50.840;4.346;2023-10-19T03:11:25;10.27;;;2.20;;
25409;SDS011;13339;50.840;4.346;2023-10-19T03:13:52;6.33;;;1.80;;
25409;SDS011;13339;50.840;4.346;2023-10-19T03:16:18;7.97;;;2.40;;
25409;SDS011;13339;50.840;4.346;2023-10-19T03:18:46;10.63;;;2.63;;
25409;SDS011;13339;50.840;4.346;2023-10-19T03:21:12;8.13;;;2.20;;
25409;SDS011;13339;50.840;4.346;2023-10-19T03:23:37;12.60;;;2.40;;
25409;SDS011;13339;50.840;4.346;2023-10-19T03:26:03;9.00;;;1.77;;
25409;SDS011;13339;50.840;4.346;2023-10-19T03:28:52;9.57;;;2.00;;
25409;SDS011;13339;50.840;4.346;2023-10-19T03:31:21;10.10;;;2.00;;
25409;SDS011;13339;50.840;4.346;2023-10-19T03:33:50;9.93;;;2.50;;
25409;SDS011;13339;50.840;4.346;2023-10-19T03:36:19;8.97;;;2.57;;
25409;SDS011;13339;50.840;4.346;2023-10-19T03:38:46;7.47;;;2.07;;
25409;SDS011;13339;50.840;4.346;2023-10-19T03:41:11;10.00;;;2.37;;
25409;SDS011;13339;50.840;4.346;2023-10-19T03:43:37;8.30;;;2.60;;
25409;SDS011;13339;50.840;4.346;2023-10-19T03:46:06;10.57;;;3.10;;
25409;SDS011;13339;50.840;4.346;2023-10-19T03:48:55;14.37;;;3.07;;
25409;SDS011;13339;50.840;4.346;2023-10-19T03:51:27;8.73;;;2.63;;
25409;SDS011;13339;50.840;4.346;2023-10-19T03:54:04;12.13;;;2.70;;
25409;SDS011;13339;50.840;4.346;2023-10-19T03:56:38;9.83;;;2.33;;
25409;SDS011;13339;50.840;4.346;2023-10-19T03:59:03;10.80;;;2.77;;
25409;SDS011;13339;50.840;4.346;2023-10-19T04:01:31;11.30;;;2.20;;
25409;SDS011;13339;50.840;4.346;2023-10-19T04:03:56;11.03;;;2.40;;
25409;SDS011;13339;50.840;4.346;2023-10-19T04:06:22;11.50;;;2.93;;
25409;SDS011;13339;50.840;4.346;2023-10-19T04:08:48;10.40;;;2.50;;
25409;SDS011;13339;50.840;4.346;2023-10-19T04:11:16;11.97;;;2.80;;
25409;SDS011;13339;50.840;4.346;2023-10-19T04:13:49;13.80;;;2.67;;
25409;SDS011;13339;50.840;4.346;2023-10-19T04:16:18;9.40;;;2.10;;
25409;SDS011;13339;50.840;4.346;2023-10-19T04:18:45;9.23;;;2.00;;
25409;SDS011;13339;50.840;4.346;2023-10-19T04:21:11;8.77;;;2.37;;
25409;SDS011;13339;50.840;4.346;2023-10-19T04:23:36;10.27;;;2.37;;
25409;SDS011;13339;50.840;4.346;2023-10-19T04:26:03;8.70;;;2.40;;
25409;SDS011;13339;50.840;4.346;2023-10-19T04:28:39;10.60;;;2.17;;
25409;SDS011;13339;50.840;4.346;2023-10-19T04:31:15;7.40;;;2.20;;
25409;SDS011;13339;50.840;4.346;2023-10-19T04:33:43;16.00;;;3.33;;
25409;SDS011;13339;50.840;4.346;2023-10-19T04:36:11;7.40;;;3.10;;
25409;SDS011;13339;50.840;4.346;2023-10-19T04:38:39;13.70;;;3.73;;
25409;SDS011;13339;50.840;4.346;2023-10-19T04:41:09;9.87;;;2.20;;
25409;SDS011;13339;50.840;4.346;2023-10-19T04:43:35;10.80;;;2.10;;
25409;SDS011;13339;50.840;4.346;2023-10-19T04:46:06;12.43;;;2.40;;
25409;SDS011;13339;50.840;4.346;2023-10-19T04:48:35;10.40;;;2.40;;
25409;SDS011;13339;50.840;4.346;2023-10-19T04:51:02;7.30;;;1.90;;
25409;SDS011;13339;50.840;4.346;2023-10-19T04:53:30;12.30;;;2.90;;
25409;SDS011;13339;50.840;4.346;2023-10-19T04:55:57;12.80;;;2.30;;
25409;SDS011;13339;50.840;4.346;2023-10-19T04:58:24;8.93;;;2.17;;
25409;SDS011;13339;50.840;4.346;2023-10-19T05:00:52;10.73;;;2.37;;
25409;SDS011;13339;50.840;4.346;2023-10-19T05:03:18;11.23;;;2.33;;
25409;SDS011;13339;50.840;4.346;2023-10-19T05:05:44;8.87;;;2.40;;
25409;SDS011;13339;50.840;4.346;2023-10-19T05:08:10;10.63;;;2.80;;
25409;SDS011;13339;50.840;4.346;2023-10-19T05:10:36;13.90;;;2.43;;
25409;SDS011;13339;50.840;4.346;2023-10-19T05:13:02;10.93;;;2.97;;
25409;SDS011;13339;50.840;4.346;2023-10-19T05:15:28;14.57;;;2.60;;
25409;SDS011;13339;50.840;4.346;2023-10-19T05:17:54;15.87;;;3.60;;
25409;SDS011;13339;50.840;4.346;2023-10-19T05:20:20;11.17;;;2.53;;
25409;SDS011;13339;50.840;4.346;2023-10-19T05:22:46;13.70;;;2.50;;
25409;SDS011;13339;50.840;4.346;2023-10-19T05:25:12;11.87;;;2.50;;
25409;SDS011;13339;50.840;4.346;2023-10-19T05:27:38;5.53;;;1.90;;
25409;SDS011;13339;50.840;4.346;2023-10-19T05:30:05;8.03;;;2.23;;
25409;SDS011;13339;50.840;4.346;2023-10-19T05:32:31;10.23;;;2.07;;
25409;SDS011;13339;50.840;4.346;2023-10-19T05:34:58;12.97;;;2.63;;
25409;SDS011;13339;50.840;4.346;2023-10-19T05:37:23;9.00;;;1.90;;
25409;SDS011;13339;50.840;4.346;2023-10-19T05:39:50;16.73;;;2.63;;
25409;SDS011;13339;50.840;4.346;2023-10-19T05:42:17;10.03;;;3.13;;
25409;SDS011;13339;50.840;4.346;2023-10-19T05:44:42;11.37;;;2.57;;
25409;SDS011;13339;50.840;4.346;2023-10-19T05:47:08;9.60;;;2.60;;
25409;SDS011;13339;50.840;4.346;2023-10-19T05:49:34;10.27;;;2.80;;
25409;SDS011;13339;50.840;4.346;2023-10-19T05:52:00;10.10;;;2.60;;
25409;SDS011;13339;50.840;4.346;2023-10-19T05:54:25;12.77;;;2.40;;
25409;SDS011;13339;50.840;4.346;2023-10-19T05:56:52;12.03;;;2.27;;
25409;SDS011;13339;50.840;4.346;2023-10-19T05:59:18;9.57;;;2.70;;
25409;SDS011;13339;50.840;4.346;2023-10-19T06:01:44;10.87;;;2.90;;
25409;SDS011;13339;50.840;4.346;2023-10-19T06:04:13;15.27;;;3.57;;
25409;SDS011;13339;50.840;4.346;2023-10-19T06:06:39;15.73;;;3.10;;
25409;SDS011;13339;50.840;4.346;2023-10-19T06:09:05;15.13;;;3.27;;
25409;SDS011;13339;50.840;4.346;2023-10-19T06:11:33;14.23;;;3.17;;
25409;SDS011;13339;50.840;4.346;2023-10-19T06:14:02;11.67;;;2.87;;
25409;SDS011;13339;50.840;4.346;2023-10-19T06:16:32;15.90;;;2.87;;
25409;SDS011;13339;50.840;4.346;2023-10-19T06:18:58;13.43;;;2.90;;
25409;SDS011;13339;50.840;4.346;2023-10-19T06:21:24;19.43;;;3.70;;
25409;SDS011;13339;50.840;4.346;2023-10-19T06:23:50;12.57;;;2.93;;
25409;SDS011;13339;50.840;4.346;2023-10-19T06:26:17;16.07;;;2.73;;
25409;SDS011;13339;50.840;4.346;2023-10-19T06:28:42;16.80;;;3.13;;
25409;SDS011;13339;50.840;4.346;2023-10-19T06:31:08;16.73;;;3.33;;
25409;SDS011;13339;50.840;4.346;2023-10-19T06:33:34;18.33;;;5.80;;
25409;SDS011;13339;50.840;4.346;2023-10-19T06:36:01;15.33;;;3.20;;
25409;SDS011;13339;50.840;4.346;2023-10-19T06:38:28;9.47;;;2.40;;
25409;SDS011;13339;50.840;4.346;2023-10-19T06:40:54;11.60;;;2.57;;
25409;SDS011;13339;50.840;4.346;2023-10-19T06:43:21;9.23;;;2.50;;
25409;SDS011;13339;50.840;4.346;2023-10-19T06:45:50;11.00;;;3.60;;
25409;SDS011;13339;50.840;4.346;2023-10-19T06:48:17;12.83;;;3.40;;
25409;SDS011;13339;50.840;4.346;2023-10-19T06:50:43;14.13;;;4.00;;
25409;SDS011;13339;50.840;4.346;2023-10-19T06:53:10;12.63;;;2.83;;
25409;SDS011;13339;50.840;4.346;2023-10-19T06:55:36;11.93;;;3.37;;
25409;SDS011;13339;50.840;4.346;2023-10-19T06:58:01;15.13;;;3.17;;
25409;SDS011;13339;50.840;4.346;2023-10-19T07:00:27;18.57;;;4.17;;
25409;SDS011;13339;50.840;4.346;2023-10-19T07:02:54;29.07;;;10.63;;
25409;SDS011;13339;50.840;4.346;2023-10-19T07:05:21;14.63;;;4.00;;
25409;SDS011;13339;50.840;4.346;2023-10-19T07:07:49;13.07;;;3.40;;
25409;SDS011;13339;50.840;4.346;2023-10-19T07:10:20;17.33;;;3.83;;
25409;SDS011;13339;50.840;4.346;2023-10-19T07:12:46;11.83;;;3.33;;
25409;SDS011;13339;50.840;4.346;2023-10-19T07:15:14;12.77;;;3.27;;
25409;SDS011;13339;50.840;4.346;2023-10-19T07:17:40;14.50;;;2.87;;
25409;SDS011;13339;50.840;4.346;2023-10-19T07:20:07;13.87;;;3.23;;
25409;SDS011;13339;50.840;4.346;2023-10-19T07:22:34;13.80;;;2.70;;
25409;SDS011;13339;50.840;4.346;2023-10-19T07:25:05;12.23;;;2.97;;
25409;SDS011;13339;50.840;4.346;2023-10-19T07:27:31;16.97;;;3.07;;
25409;SDS011;13339;50.840;4.346;2023-10-19T07:29:58;9.23;;;2.43;;
25409;SDS011;13339;50.840;4.346;2023-10-19T07:32:24;14.10;;;3.40;;
25409;SDS011;13339;50.840;4.346;2023-10-19T07:34:50;15.07;;;2.90;;
25409;SDS011;13339;50.840;4.346;2023-10-19T07:37:15;10.27;;;2.90;;
25409;SDS011;13339;50.840;4.346;2023-10-19T07:39:45;15.87;;;3.73;;
25409;SDS011;13339;50.840;4.346;2023-10-19T07:42:11;19.27;;;3.13;;
25409;SDS011;13339;50.840;4.346;2023-10-19T07:44:37;18.93;;;3.10;;
25409;SDS011;13339;50.840;4.346;2023-10-19T07:47:03;17.23;;;3.37;;
25409;SDS011;13339;50.840;4.346;2023-10-19T07:49:29;20.60;;;3.40;;
25409;SDS011;13339;50.840;4.346;2023-10-19T07:51:54;18.27;;;3.20;;
25409;SDS011;13339;50.840;4.346;2023-10-19T07:54:20;20.90;;;5.93;;
25409;SDS011;13339;50.840;4.346;2023-10-19T07:56:46;25.90;;;8.47;;
25409;SDS011;13339;50.840;4.346;2023-10-19T07:59:12;20.80;;;4.17;;
25409;SDS011;13339;50.840;4.346;2023-10-19T08:01:38;19.17;;;4.30;;
25409;SDS011;13339;50.840;4.346;2023-10-19T08:04:04;18.43;;;3.80;;
25409;SDS011;13339;50.840;4.346;2023-10-19T08:06:30;19.27;;;3.53;;
25409;SDS011;13339;50.840;4.346;2023-10-19T08:08:56;16.93;;;3.67;;
25409;SDS011;13339;50.840;4.346;2023-10-19T08:11:23;16.37;;;3.80;;
25409;SDS011;13339;50.840;4.346;2023-10-19T08:13:49;23.47;;;3.37;;
25409;SDS011;13339;50.840;4.346;2023-10-19T08:16:15;22.33;;;5.90;;
25409;SDS011;13339;50.840;4.346;2023-10-19T08:18:41;22.63;;;5.57;;
25409;SDS011;13339;50.840;4.346;2023-10-19T08:21:07;17.33;;;4.20;;
25409;SDS011;13339;50.840;4.346;2023-10-19T08:23:33;16.20;;;3.00;;
25409;SDS011;13339;50.840;4.346;2023-10-19T08:25:59;18.77;;;5.87;;
25409;SDS011;13339;50.840;4.346;2023-10-19T08:28:24;25.40;;;3.73;;
25409;SDS011;13339;50.840;4.346;2023-10-19T08:30:50;20.93;;;4.57;;
25409;SDS011;13339;50.840;4.346;2023-10-19T08:33:25;18.53;;;4.60;;
25409;SDS011;13339;50.840;4.346;2023-10-19T08:35:52;21.17;;;3.87;;
25409;SDS011;13339;50.840;4.346;2023-10-19T08:38:19;16.73;;;3.40;;
25409;SDS011;13339;50.840;4.346;2023-10-19T08:40:45;15.47;;;2.87;;
25409;SDS011;13339;50.840;4.346;2023-10-19T08:43:12;14.60;;;3.40;;
25409;SDS011;13339;50.840;4.346;2023-10-19T08:45:43;15.90;;;3.50;;
25409;SDS011;13339;50.840;4.346;2023-10-19T08:48:09;23.60;;;10.90;;
25409;SDS011;13339;50.840;4.346;2023-10-19T08:50:36;15.83;;;3.83;;
25409;SDS011;13339;50.840;4.346;2023-10-19T08:53:02;18.03;;;3.60;;
25409;SDS011;13339;50.840;4.346;2023-10-19T08:55:30;17.37;;;3.47;;
25409;SDS011;13339;50.840;4.346;2023-10-19T08:57:56;18.03;;;3.50;;
25409;SDS011;13339;50.840;4.346;2023-10-19T09:00:25;13.50;;;3.10;;
25409;SDS011;13339;50.840;4.346;2023-10-19T09:02:52;16.60;;;3.40;;
25409;SDS011;13339;50.840;4.346;2023-10-19T09:05:18;17.60;;;4.07;;
25409;SDS011;13339;50.840;4.346;2023-10-19T09:07:54;20.93;;;3.90;;
25409;SDS011;13339;50.840;4.346;2023-10-19T09:10:23;14.57;;;3.53;;
25409;SDS011;13339;50.840;4.346;2023-10-19T09:13:04;13.27;;;3.47;;
25409;SDS011;13339;50.840;4.346;2023-10-19T09:15:34;25.73;;;4.27;;
25409;SDS011;13339;50.840;4.346;2023-10-19T09:20:42;14.53;;;3.30;;
25409;SDS011;13339;50.840;4.346;2023-10-19T09:23:22;12.33;;;2.97;;
25409;SDS011;13339;50.840;4.346;2023-10-19T09:25:49;14.07;;;3.60;;
25409;SDS011;13339;50.840;4.346;2023-10-19T09:28:17;13.30;;;2.97;;
25409;SDS011;13339;50.840;4.346;2023-10-19T09:30:43;22.93;;;4.27;;
25409;SDS011;13339;50.840;4.346;2023-10-19T09:33:10;17.97;;;4.07;;
25409;SDS011;13339;50.840;4.346;2023-10-19T09:35:39;15.70;;;3.70;;
25409;SDS011;13339;50.840;4.346;2023-10-19T09:38:08;16.17;;;3.10;;
25409;SDS011;13339;50.840;4.346;2023-10-19T09:40:34;12.90;;;3.00;;
25409;SDS011;13339;50.840;4.346;2023-10-19T09:43:02;11.20;;;3.03;;
25409;SDS011;13339;50.840;4.346;2023-10-19T09:45:32;12.87;;;3.50;;
25409;SDS011;13339;50.840;4.346;2023-10-19T09:48:05;10.07;;;3.23;;
25409;SDS011;13339;50.840;4.346;2023-10-19T09:50:32;18.20;;;3.40;;
25409;SDS011;13339;50.840;4.346;2023-10-19T09:52:58;14.87;;;3.97;;
25409;SDS011;13339;50.840;4.346;2023-10-19T09:55:42;18.07;;;4.27;;
25409;SDS011;13339;50.840;4.346;2023-10-19T09:58:15;25.83;;;10.10;;
25409;SDS011;13339;50.840;4.346;2023-10-19T10:00:46;20.00;;;5.87;;
25409;SDS011;13339;50.840;4.346;2023-10-19T10:06:07;16.33;;;3.90;;
25409;SDS011;13339;50.840;4.346;2023-10-19T10:08:34;11.73;;;3.40;;
25409;SDS011;13339;50.840;4.346;2023-10-19T10:11:14;13.90;;;3.33;;
25409;SDS011;13339;50.840;4.346;2023-10-19T10:13:45;14.17;;;3.67;;
25409;SDS011;13339;50.840;4.346;2023-10-19T10:16:15;15.73;;;4.50;;
25409;SDS011;13339;50.840;4.346;2023-10-19T10:18:41;12.13;;;4.40;;
25409;SDS011;13339;50.840;4.346;2023-10-19T10:21:13;17.20;;;4.97;;
25409;SDS011;13339;50.840;4.346;2023-10-19T10:23:48;14.97;;;4.00;;
25409;SDS011;13339;50.840;4.346;2023-10-19T10:26:20;15.37;;;4.00;;
25409;SDS011;13339;50.840;4.346;2023-10-19T10:31:45;15.23;;;4.40;;
25409;SDS011;13339;50.840;4.346;2023-10-19T10:34:41;18.77;;;4.03;;
25409;SDS011;13339;50.840;4.346;2023-10-19T10:37:04;14.07;;;3.40;;
25409;SDS011;13339;50.840;4.346;2023-10-19T10:39:35;10.17;;;3.37;;
25409;SDS011;13339;50.840;4.346;2023-10-19T10:42:08;11.47;;;3.00;;
25409;SDS011;13339;50.840;4.346;2023-10-19T10:44:38;13.60;;;3.13;;
25409;SDS011;13339;50.840;4.346;2023-10-19T10:52:22;15.53;;;7.27;;
25409;SDS011;13339;50.840;4.346;2023-10-19T10:54:58;10.80;;;3.43;;
25409;SDS011;13339;50.840;4.346;2023-10-19T10:57:38;14.13;;;3.60;;
25409;SDS011;13339;50.840;4.346;2023-10-19T11:00:06;15.73;;;4.00;;
25409;SDS011;13339;50.840;4.346;2023-10-19T11:02:40;15.23;;;4.30;;
25409;SDS011;13339;50.840;4.346;2023-10-19T11:05:15;13.33;;;3.93;;
25409;SDS011;13339;50.840;4.346;2023-10-19T11:07:46;13.40;;;3.20;;
25409;SDS011;13339;50.840;4.346;2023-10-19T11:10:29;12.87;;;2.97;;
25409;SDS011;13339;50.840;4.346;2023-10-19T11:15:31;19.00;;;4.20;;
25409;SDS011;13339;50.840;4.346;2023-10-19T11:17:57;14.53;;;3.30;;
25409;SDS011;13339;50.840;4.346;2023-10-19T11:20:24;14.80;;;3.07;;
25409;SDS011;13339;50.840;4.346;2023-10-19T11:22:52;12.17;;;3.30;;
25409;SDS011;13339;50.840;4.346;2023-10-19T11:25:22;18.20;;;3.97;;
25409;SDS011;13339;50.840;4.346;2023-10-19T11:27:49;16.77;;;3.60;;
25409;SDS011;13339;50.840;4.346;2023-10-19T11:30:27;12.93;;;3.13;;
25409;SDS011;13339;50.840;4.346;2023-10-19T11:32:54;10.73;;;2.90;;
25409;SDS011;13339;50.840;4.346;2023-10-19T11:35:27;9.87;;;3.20;;
25409;SDS011;13339;50.840;4.346;2023-10-19T11:37:57;11.53;;;2.97;;
25409;SDS011;13339;50.840;4.346;2023-10-19T11:40:27;12.27;;;3.20;;
25409;SDS011;13339;50.840;4.346;2023-10-19T11:42:53;10.87;;;2.53;;
25409;SDS011;13339;50.840;4.346;2023-10-19T11:45:25;12.50;;;2.60;;
25409;SDS011;13339;50.840;4.346;2023-10-19T11:47:51;10.10;;;2.80;;
25409;SDS011;13339;50.840;4.346;2023-10-19T11:50:18;7.37;;;2.63;;
25409;SDS011;13339;50.840;4.346;2023-10-19T11:52:44;7.23;;;3.07;;
25409;SDS011;13339;50.840;4.346;2023-10-19T11:55:11;13.10;;;2.80;;
25409;SDS011;13339;50.840;4.346;2023-10-19T11:57:42;9.70;;;2.17;;
25409;SDS011;13339;50.840;4.346;2023-10-19T12:00:09;10.93;;;2.63;;
25409;SDS011;13339;50.840;4.346;2023-10-19T12:02:48;13.00;;;2.80;;
25409;SDS011;13339;50.840;4.346;2023-10-19T12:05:14;8.93;;;2.60;;
25409;SDS011;13339;50.840;4.346;2023-10-19T12:07:40;11.27;;;3.27;;
25409;SDS011;13339;50.840;4.346;2023-10-19T12:10:07;7.90;;;2.70;;
25409;SDS011;13339;50.840;4.346;2023-10-19T12:12:37;9.23;;;2.87;;
25409;SDS011;13339;50.840;4.346;2023-10-19T12:15:06;5.67;;;2.67;;
25409;SDS011;13339;50.840;4.346;2023-10-19T12:17:32;9.60;;;2.67;;
25409;SDS011;13339;50.840;4.346;2023-10-19T12:19:58;8.90;;;2.30;;
25409;SDS011;13339;50.840;4.346;2023-10-19T12:22:24;2.93;;;1.80;;
25409;SDS011;13339;50.840;4.346;2023-10-19T12:24:53;5.87;;;1.87;;
25409;SDS011;13339;50.840;4.346;2023-10-19T12:27:19;8.40;;;2.50;;
25409;SDS011;13339;50.840;4.346;2023-10-19T12:29:45;7.80;;;3.30;;
25409;SDS011;13339;50.840;4.346;2023-10-19T12:32:11;6.87;;;2.07;;
25409;SDS011;13339;50.840;4.346;2023-10-19T12:34:39;5.50;;;2.13;;
25409;SDS011;13339;50.840;4.346;2023-10-19T12:37:06;8.50;;;1.70;;
25409;SDS011;13339;50.840;4.346;2023-10-19T12:39:33;6.70;;;2.20;;
25409;SDS011;13339;50.840;4.346;2023-10-19T12:42:09;5.40;;;3.07;;
25409;SDS011;13339;50.840;4.346;2023-10-19T12:44:36;5.40;;;2.10;;
25409;SDS011;13339;50.840;4.346;2023-10-19T12:47:06;5.57;;;1.73;;
25409;SDS011;13339;50.840;4.346;2023-10-19T12:49:41;5.07;;;2.00;;
25409;SDS011;13339;50.840;4.346;2023-10-19T12:52:07;3.07;;;1.47;;
25409;SDS011;13339;50.840;4.346;2023-10-19T12:54:37;3.27;;;1.77;;
25409;SDS011;13339;50.840;4.346;2023-10-19T12:57:03;4.20;;;1.40;;
25409;SDS011;13339;50.840;4.346;2023-10-19T12:59:35;3.70;;;1.97;;
25409;SDS011;13339;50.840;4.346;2023-10-19T13:02:05;5.80;;;1.80;;
25409;SDS011;13339;50.840;4.346;2023-10-19T13:04:33;5.40;;;1.60;;
25409;SDS011;13339;50.840;4.346;2023-10-19T13:06:59;4.80;;;1.40;;
25409;SDS011;13339;50.840;4.346;2023-10-19T13:09:27;3.43;;;1.43;;
25409;SDS011;13339;50.840;4.346;2023-10-19T13:11:57;6.90;;;1.50;;
25409;SDS011;13339;50.840;4.346;2023-10-19T13:14:23;6.73;;;1.50;;
25409;SDS011;13339;50.840;4.346;2023-10-19T13:16:49;4.53;;;2.23;;
25409;SDS011;13339;50.840;4.346;2023-10-19T13:19:16;3.57;;;1.60;;
25409;SDS011;13339;50.840;4.346;2023-10-19T13:21:45;5.73;;;1.83;;
25409;SDS011;13339;50.840;4.346;2023-10-19T13:24:15;4.47;;;1.53;;
25409;SDS011;13339;50.840;4.346;2023-10-19T13:26:41;4.23;;;1.20;;
25409;SDS011;13339;50.840;4.346;2023-10-19T13:29:10;4.23;;;1.27;;
25409;SDS011;13339;50.840;4.346;2023-10-19T13:31:36;3.53;;;1.63;;
25409;SDS011;13339;50.840;4.346;2023-10-19T13:34:02;3.70;;;1.47;;
25409;SDS011;13339;50.840;4.346;2023-10-19T13:36:29;4.77;;;1.80;;
25409;SDS011;13339;50.840;4.346;2023-10-19T13:38:55;6.27;;;1.60;;
25409;SDS011;13339;50.840;4.346;2023-10-19T13:41:21;2.20;;;1.20;;
25409;SDS011;13339;50.840;4.346;2023-10-19T13:43:47;5.50;;;1.80;;
25409;SDS011;13339;50.840;4.346;2023-10-19T13:46:13;4.03;;;1.57;;
25409;SDS011;13339;50.840;4.346;2023-10-19T13:48:40;2.63;;;1.20;;
25409;SDS011;13339;50.840;4.346;2023-10-19T13:51:05;5.13;;;1.47;;
25409;SDS011;13339;50.840;4.346;2023-10-19T13:53:40;3.03;;;1.50;;
25409;SDS011;13339;50.840;4.346;2023-10-19T13:56:09;6.20;;;1.50;;
25409;SDS011;13339;50.840;4.346;2023-10-19T13:58:35;2.67;;;1.67;;
25409;SDS011;13339;50.840;4.346;2023-10-19T14:01:01;4.13;;;1.50;;
25409;SDS011;13339;50.840;4.346;2023-10-19T14:03:31;4.37;;;1.30;;
25409;SDS011;13339;50.840;4.346;2023-10-19T14:05:56;2.17;;;1.30;;
25409;SDS011;13339;50.840;4.346;2023-10-19T14:08:22;2.90;;;1.10;;
25409;SDS011;13339;50.840;4.346;2023-10-19T14:10:48;1.43;;;0.90;;
25409;SDS011;13339;50.840;4.346;2023-10-19T14:13:14;4.83;;;1.70;;
25409;SDS011;13339;50.840;4.346;2023-10-19T14:15:40;3.93;;;1.20;;
25409;SDS011;13339;50.840;4.346;2023-10-19T14:18:07;4.33;;;1.37;;
25409;SDS011;13339;50.840;4.346;2023-10-19T14:20:33;5.33;;;1.50;;
25409;SDS011;13339;50.840;4.346;2023-10-19T14:22:59;2.27;;;1.40;;
25409;SDS011;13339;50.840;4.346;2023-10-19T14:25:26;2.23;;;1.23;;
25409;SDS011;13339;50.840;4.346;2023-10-19T14:27:54;2.57;;;1.40;;
25409;SDS011;13339;50.840;4.346;2023-10-19T14:30:24;2.80;;;1.00;;
25409;SDS011;13339;50.840;4.346;2023-10-19T14:32:51;2.60;;;1.23;;
25409;SDS011;13339;50.840;4.346;2023-10-19T14:35:18;2.57;;;1.30;;
25409;SDS011;13339;50.840;4.346;2023-10-19T14:37:45;5.83;;;1.50;;
25409;SDS011;13339;50.840;4.346;2023-10-19T14:40:19;2.97;;;0.80;;
25409;SDS011;13339;50.840;4.346;2023-10-19T14:42:47;3.77;;;1.37;;
25409;SDS011;13339;50.840;4.346;2023-10-19T14:45:13;1.70;;;1.10;;
25409;SDS011;13339;50.840;4.346;2023-10-19T14:47:41;5.00;;;1.40;;
25409;SDS011;13339;50.840;4.346;2023-10-19T14:50:09;4.83;;;2.10;;
25409;SDS011;13339;50.840;4.346;2023-10-19T14:52:37;2.50;;;0.97;;
25409;SDS011;13339;50.840;4.346;2023-10-19T14:55:04;3.03;;;1.40;;
25409;SDS011;13339;50.840;4.346;2023-10-19T14:57:31;5.20;;;1.73;;
25409;SDS011;13339;50.840;4.346;2023-10-19T14:59:58;2.43;;;1.30;;
25409;SDS011;13339;50.840;4.346;2023-10-19T15:02:33;5.03;;;1.40;;
25409;SDS011;13339;50.840;4.346;2023-10-19T15:05:00;3.47;;;1.30;;